Terminal Aerodrome Forecast
Issued by NWS

Home | Current Version | Previous Version | Text Only | Print | Product List | Glossary On
Versions: 1 2 3 4 5 6 7 8 9 10 11 12 13 14 15 16 17 18 19 20 21 22 23 24 25 26 27 28 29 30 31 32 33 34 35 36 37 38 39 40 41 42
918
FTUS45 KBOU 201130
TAFBJC
TAF
KBJC 201130Z 2012/2112 VRB06KT P6SM SCT120 BKN220
     FM201600 11007KT P6SM FEW080 SCT140
     FM202100 09008KT P6SM VCTS SCT080CB BKN120
      TEMPO 2021/2101 VRB20G35KT -TSRA BKN080CB
     FM210100 25014KT P6SM VCSH SCT080 BKN120
     FM210500 24008KT P6SM SCT120 BKN220=

USA.gov is the U.S. government's official web portal to all federal, state and local government web resources and services.